sensor_id;sensor_type;location;lat;lon;timestamp;P1;durP1;ratioP1;P2;durP2;ratioP2
3571;SDS011;7958;53.024;12.970;2023-08-01T00:00:35;9.60;;;5.90;;
3571;SDS011;7958;53.024;12.970;2023-08-01T00:03:02;14.10;;;6.30;;
3571;SDS011;7958;53.024;12.970;2023-08-01T00:05:34;10.07;;;6.00;;
3571;SDS011;7958;53.024;12.970;2023-08-01T00:08:00;11.63;;;5.63;;
3571;SDS011;7958;53.024;12.970;2023-08-01T00:10:28;9.57;;;5.80;;
3571;SDS011;7958;53.024;12.970;2023-08-01T00:12:54;9.30;;;6.23;;
3571;SDS011;7958;53.024;12.970;2023-08-01T00:15:20;11.27;;;6.13;;
3571;SDS011;7958;53.024;12.970;2023-08-01T00:17:47;10.13;;;5.80;;
3571;SDS011;7958;53.024;12.970;2023-08-01T00:20:16;9.67;;;6.00;;
3571;SDS011;7958;53.024;12.970;2023-08-01T00:22:44;12.30;;;6.63;;
3571;SDS011;7958;53.024;12.970;2023-08-01T00:25:10;9.97;;;6.30;;
3571;SDS011;7958;53.024;12.970;2023-08-01T00:27:37;10.50;;;6.53;;
3571;SDS011;7958;53.024;12.970;2023-08-01T00:30:03;9.10;;;5.70;;
3571;SDS011;7958;53.024;12.970;2023-08-01T00:32:31;8.17;;;5.70;;
3571;SDS011;7958;53.024;12.970;2023-08-01T00:34:57;17.97;;;7.57;;
3571;SDS011;7958;53.024;12.970;2023-08-01T00:37:23;8.50;;;6.10;;
3571;SDS011;7958;53.024;12.970;2023-08-01T00:39:51;9.07;;;7.27;;
3571;SDS011;7958;53.024;12.970;2023-08-01T00:42:17;12.30;;;6.53;;
3571;SDS011;7958;53.024;12.970;2023-08-01T00:44:44;12.33;;;6.73;;
3571;SDS011;7958;53.024;12.970;2023-08-01T00:47:12;9.93;;;6.27;;
3571;SDS011;7958;53.024;12.970;2023-08-01T00:49:41;8.43;;;5.73;;
3571;SDS011;7958;53.024;12.970;2023-08-01T00:52:08;11.93;;;6.70;;
3571;SDS011;7958;53.024;12.970;2023-08-01T00:54:35;11.07;;;6.60;;
3571;SDS011;7958;53.024;12.970;2023-08-01T00:57:03;8.40;;;6.23;;
3571;SDS011;7958;53.024;12.970;2023-08-01T00:59:31;13.40;;;6.70;;
3571;SDS011;7958;53.024;12.970;2023-08-01T01:01:58;10.60;;;6.37;;
3571;SDS011;7958;53.024;12.970;2023-08-01T01:04:26;14.13;;;6.67;;
3571;SDS011;7958;53.024;12.970;2023-08-01T01:06:56;10.97;;;7.33;;
3571;SDS011;7958;53.024;12.970;2023-08-01T01:09:27;10.97;;;7.20;;
3571;SDS011;7958;53.024;12.970;2023-08-01T01:11:54;9.00;;;7.37;;
3571;SDS011;7958;53.024;12.970;2023-08-01T01:14:22;11.50;;;6.80;;
3571;SDS011;7958;53.024;12.970;2023-08-01T01:16:50;9.93;;;7.27;;
3571;SDS011;7958;53.024;12.970;2023-08-01T01:19:17;10.73;;;7.17;;
3571;SDS011;7958;53.024;12.970;2023-08-01T01:21:45;11.30;;;6.60;;
3571;SDS011;7958;53.024;12.970;2023-08-01T01:24:15;10.00;;;6.60;;
3571;SDS011;7958;53.024;12.970;2023-08-01T01:26:42;12.10;;;6.43;;
3571;SDS011;7958;53.024;12.970;2023-08-01T01:29:11;8.47;;;6.70;;
3571;SDS011;7958;53.024;12.970;2023-08-01T01:31:38;11.80;;;6.43;;
3571;SDS011;7958;53.024;12.970;2023-08-01T01:34:05;9.70;;;7.17;;
3571;SDS011;7958;53.024;12.970;2023-08-01T01:36:31;9.17;;;6.77;;
3571;SDS011;7958;53.024;12.970;2023-08-01T01:39:00;9.20;;;6.50;;
3571;SDS011;7958;53.024;12.970;2023-08-01T01:41:27;9.70;;;7.07;;
3571;SDS011;7958;53.024;12.970;2023-08-01T01:43:58;9.00;;;6.23;;
3571;SDS011;7958;53.024;12.970;2023-08-01T01:46:25;9.60;;;6.00;;
3571;SDS011;7958;53.024;12.970;2023-08-01T01:48:51;9.00;;;5.80;;
3571;SDS011;7958;53.024;12.970;2023-08-01T01:51:19;9.40;;;6.20;;
3571;SDS011;7958;53.024;12.970;2023-08-01T01:53:47;8.37;;;5.53;;
3571;SDS011;7958;53.024;12.970;2023-08-01T01:56:15;7.93;;;5.87;;
3571;SDS011;7958;53.024;12.970;2023-08-01T01:58:41;6.73;;;5.63;;
3571;SDS011;7958;53.024;12.970;2023-08-01T02:01:07;6.67;;;5.17;;
3571;SDS011;7958;53.024;12.970;2023-08-01T02:03:34;8.47;;;5.10;;
3571;SDS011;7958;53.024;12.970;2023-08-01T02:06:01;5.87;;;5.07;;
3571;SDS011;7958;53.024;12.970;2023-08-01T02:08:28;11.47;;;4.70;;
3571;SDS011;7958;53.024;12.970;2023-08-01T02:10:54;7.23;;;5.50;;
3571;SDS011;7958;53.024;12.970;2023-08-01T02:13:25;7.37;;;5.07;;
3571;SDS011;7958;53.024;12.970;2023-08-01T02:15:52;6.20;;;4.57;;
3571;SDS011;7958;53.024;12.970;2023-08-01T02:18:19;10.10;;;5.03;;
3571;SDS011;7958;53.024;12.970;2023-08-01T02:20:45;8.77;;;5.00;;
3571;SDS011;7958;53.024;12.970;2023-08-01T02:23:12;8.57;;;4.90;;
3571;SDS011;7958;53.024;12.970;2023-08-01T02:25:41;6.83;;;4.10;;
3571;SDS011;7958;53.024;12.970;2023-08-01T02:28:08;7.90;;;4.70;;
3571;SDS011;7958;53.024;12.970;2023-08-01T02:30:39;11.73;;;4.23;;
3571;SDS011;7958;53.024;12.970;2023-08-01T02:33:05;6.40;;;4.20;;
3571;SDS011;7958;53.024;12.970;2023-08-01T02:35:46;10.27;;;4.63;;
3571;SDS011;7958;53.024;12.970;2023-08-01T02:38:13;7.53;;;4.30;;
3571;SDS011;7958;53.024;12.970;2023-08-01T02:40:41;4.57;;;3.57;;
3571;SDS011;7958;53.024;12.970;2023-08-01T02:43:08;3.70;;;3.40;;
3571;SDS011;7958;53.024;12.970;2023-08-01T02:45:35;4.10;;;3.70;;
3571;SDS011;7958;53.024;12.970;2023-08-01T02:48:03;4.63;;;3.40;;
3571;SDS011;7958;53.024;12.970;2023-08-01T02:50:30;6.17;;;3.37;;
3571;SDS011;7958;53.024;12.970;2023-08-01T02:52:57;5.60;;;3.80;;
3571;SDS011;7958;53.024;12.970;2023-08-01T02:55:31;4.87;;;3.60;;
3571;SDS011;7958;53.024;12.970;2023-08-01T02:58:02;4.57;;;3.47;;
3571;SDS011;7958;53.024;12.970;2023-08-01T03:00:37;4.10;;;3.63;;
3571;SDS011;7958;53.024;12.970;2023-08-01T03:03:07;4.13;;;3.50;;
3571;SDS011;7958;53.024;12.970;2023-08-01T03:05:35;3.27;;;2.87;;
3571;SDS011;7958;53.024;12.970;2023-08-01T03:08:02;3.60;;;3.03;;
3571;SDS011;7958;53.024;12.970;2023-08-01T03:10:29;5.13;;;3.27;;
3571;SDS011;7958;53.024;12.970;2023-08-01T03:12:56;5.17;;;3.20;;
3571;SDS011;7958;53.024;12.970;2023-08-01T03:15:27;3.73;;;3.43;;
3571;SDS011;7958;53.024;12.970;2023-08-01T03:17:53;4.23;;;3.30;;
3571;SDS011;7958;53.024;12.970;2023-08-01T03:20:22;4.70;;;3.03;;
3571;SDS011;7958;53.024;12.970;2023-08-01T03:22:49;6.07;;;3.40;;
3571;SDS011;7958;53.024;12.970;2023-08-01T03:25:16;3.50;;;2.97;;
3571;SDS011;7958;53.024;12.970;2023-08-01T03:27:42;4.20;;;3.33;;
3571;SDS011;7958;53.024;12.970;2023-08-01T03:30:09;5.23;;;3.17;;
3571;SDS011;7958;53.024;12.970;2023-08-01T03:32:44;6.50;;;3.17;;
3571;SDS011;7958;53.024;12.970;2023-08-01T03:35:11;4.20;;;3.37;;
3571;SDS011;7958;53.024;12.970;2023-08-01T03:37:40;5.17;;;3.50;;
3571;SDS011;7958;53.024;12.970;2023-08-01T03:40:07;5.00;;;3.37;;
3571;SDS011;7958;53.024;12.970;2023-08-01T03:42:34;3.90;;;3.13;;
3571;SDS011;7958;53.024;12.970;2023-08-01T03:45:01;4.30;;;3.60;;
3571;SDS011;7958;53.024;12.970;2023-08-01T03:47:29;5.37;;;3.53;;
3571;SDS011;7958;53.024;12.970;2023-08-01T03:49:56;4.23;;;3.23;;
3571;SDS011;7958;53.024;12.970;2023-08-01T03:52:23;8.43;;;3.37;;
3571;SDS011;7958;53.024;12.970;2023-08-01T03:54:53;4.80;;;3.20;;
3571;SDS011;7958;53.024;12.970;2023-08-01T03:57:20;5.80;;;3.20;;
3571;SDS011;7958;53.024;12.970;2023-08-01T03:59:47;6.50;;;3.77;;
3571;SDS011;7958;53.024;12.970;2023-08-01T04:02:14;3.47;;;3.17;;
3571;SDS011;7958;53.024;12.970;2023-08-01T04:04:41;11.70;;;3.37;;
3571;SDS011;7958;53.024;12.970;2023-08-01T04:07:08;3.70;;;3.10;;
3571;SDS011;7958;53.024;12.970;2023-08-01T04:09:35;6.53;;;2.87;;
3571;SDS011;7958;53.024;12.970;2023-08-01T04:12:05;5.77;;;3.43;;
3571;SDS011;7958;53.024;12.970;2023-08-01T04:14:36;4.00;;;3.60;;
3571;SDS011;7958;53.024;12.970;2023-08-01T04:17:03;9.57;;;3.80;;
3571;SDS011;7958;53.024;12.970;2023-08-01T04:19:30;4.93;;;3.57;;
3571;SDS011;7958;53.024;12.970;2023-08-01T04:21:57;3.97;;;3.60;;
3571;SDS011;7958;53.024;12.970;2023-08-01T04:24:24;3.37;;;3.07;;
3571;SDS011;7958;53.024;12.970;2023-08-01T04:26:55;6.30;;;3.70;;
3571;SDS011;7958;53.024;12.970;2023-08-01T04:29:24;3.97;;;3.20;;
3571;SDS011;7958;53.024;12.970;2023-08-01T04:31:52;5.90;;;3.70;;
3571;SDS011;7958;53.024;12.970;2023-08-01T04:34:19;6.00;;;3.40;;
3571;SDS011;7958;53.024;12.970;2023-08-01T04:36:45;5.10;;;3.23;;
3571;SDS011;7958;53.024;12.970;2023-08-01T04:39:12;5.80;;;3.37;;
3571;SDS011;7958;53.024;12.970;2023-08-01T04:41:39;5.73;;;2.97;;
3571;SDS011;7958;53.024;12.970;2023-08-01T04:44:06;4.27;;;3.20;;
3571;SDS011;7958;53.024;12.970;2023-08-01T04:46:34;7.10;;;3.23;;
3571;SDS011;7958;53.024;12.970;2023-08-01T04:49:01;4.93;;;3.20;;
3571;SDS011;7958;53.024;12.970;2023-08-01T04:51:28;6.47;;;3.70;;
3571;SDS011;7958;53.024;12.970;2023-08-01T04:53:55;4.40;;;3.17;;
3571;SDS011;7958;53.024;12.970;2023-08-01T04:56:23;4.57;;;3.30;;
3571;SDS011;7958;53.024;12.970;2023-08-01T04:58:51;4.97;;;3.37;;
3571;SDS011;7958;53.024;12.970;2023-08-01T05:01:17;5.30;;;3.20;;
3571;SDS011;7958;53.024;12.970;2023-08-01T05:03:47;5.50;;;3.50;;
3571;SDS011;7958;53.024;12.970;2023-08-01T05:06:14;4.37;;;3.27;;
3571;SDS011;7958;53.024;12.970;2023-08-01T05:08:44;7.90;;;3.17;;
3571;SDS011;7958;53.024;12.970;2023-08-01T05:11:11;6.20;;;2.77;;
3571;SDS011;7958;53.024;12.970;2023-08-01T05:13:38;3.83;;;2.80;;
3571;SDS011;7958;53.024;12.970;2023-08-01T05:16:06;4.47;;;3.27;;
3571;SDS011;7958;53.024;12.970;2023-08-01T05:18:35;4.17;;;3.10;;
3571;SDS011;7958;53.024;12.970;2023-08-01T05:21:04;4.07;;;2.80;;
3571;SDS011;7958;53.024;12.970;2023-08-01T05:23:31;5.73;;;3.60;;
3571;SDS011;7958;53.024;12.970;2023-08-01T05:25:58;5.67;;;3.87;;
3571;SDS011;7958;53.024;12.970;2023-08-01T05:28:25;8.20;;;3.17;;
3571;SDS011;7958;53.024;12.970;2023-08-01T05:30:52;5.27;;;3.07;;
3571;SDS011;7958;53.024;12.970;2023-08-01T05:33:19;5.73;;;3.40;;
3571;SDS011;7958;53.024;12.970;2023-08-01T05:35:47;4.83;;;3.10;;
3571;SDS011;7958;53.024;12.970;2023-08-01T05:38:17;3.70;;;3.03;;
3571;SDS011;7958;53.024;12.970;2023-08-01T05:40:44;6.67;;;3.20;;
3571;SDS011;7958;53.024;12.970;2023-08-01T05:43:11;3.17;;;2.77;;
3571;SDS011;7958;53.024;12.970;2023-08-01T05:45:41;6.10;;;3.30;;
3571;SDS011;7958;53.024;12.970;2023-08-01T05:48:08;3.10;;;2.80;;
3571;SDS011;7958;53.024;12.970;2023-08-01T05:50:36;4.90;;;2.90;;
3571;SDS011;7958;53.024;12.970;2023-08-01T05:53:03;3.30;;;2.63;;
3571;SDS011;7958;53.024;12.970;2023-08-01T05:55:32;4.47;;;2.47;;
3571;SDS011;7958;53.024;12.970;2023-08-01T05:58:00;5.23;;;2.63;;
3571;SDS011;7958;53.024;12.970;2023-08-01T06:00:27;9.03;;;2.87;;
3571;SDS011;7958;53.024;12.970;2023-08-01T06:03:00;3.30;;;2.73;;
3571;SDS011;7958;53.024;12.970;2023-08-01T06:05:30;3.97;;;2.60;;
3571;SDS011;7958;53.024;12.970;2023-08-01T06:07:57;6.27;;;3.20;;
3571;SDS011;7958;53.024;12.970;2023-08-01T06:10:44;5.80;;;3.10;;
3571;SDS011;7958;53.024;12.970;2023-08-01T06:13:11;3.50;;;2.80;;
3571;SDS011;7958;53.024;12.970;2023-08-01T06:15:54;3.90;;;2.73;;
3571;SDS011;7958;53.024;12.970;2023-08-01T06:18:21;4.03;;;2.57;;
3571;SDS011;7958;53.024;12.970;2023-08-01T06:20:48;3.37;;;2.83;;
3571;SDS011;7958;53.024;12.970;2023-08-01T06:23:14;4.03;;;3.30;;
3571;SDS011;7958;53.024;12.970;2023-08-01T06:25:44;3.17;;;2.73;;
3571;SDS011;7958;53.024;12.970;2023-08-01T06:28:15;3.23;;;2.93;;
3571;SDS011;7958;53.024;12.970;2023-08-01T06:30:41;3.40;;;3.10;;
3571;SDS011;7958;53.024;12.970;2023-08-01T06:33:08;4.03;;;2.77;;
3571;SDS011;7958;53.024;12.970;2023-08-01T06:35:36;2.77;;;2.57;;
3571;SDS011;7958;53.024;12.970;2023-08-01T06:38:02;3.13;;;2.40;;
3571;SDS011;7958;53.024;12.970;2023-08-01T06:40:29;2.90;;;2.70;;
3571;SDS011;7958;53.024;12.970;2023-08-01T06:42:58;7.80;;;2.80;;
3571;SDS011;7958;53.024;12.970;2023-08-01T06:45:25;6.43;;;2.90;;
3571;SDS011;7958;53.024;12.970;2023-08-01T06:47:52;3.33;;;2.10;;
3571;SDS011;7958;53.024;12.970;2023-08-01T06:50:21;4.00;;;3.20;;
3571;SDS011;7958;53.024;12.970;2023-08-01T06:52:48;6.30;;;2.70;;
3571;SDS011;7958;53.024;12.970;2023-08-01T06:55:15;5.90;;;3.07;;
3571;SDS011;7958;53.024;12.970;2023-08-01T06:57:42;7.50;;;2.70;;
3571;SDS011;7958;53.024;12.970;2023-08-01T07:00:11;3.87;;;2.87;;
3571;SDS011;7958;53.024;12.970;2023-08-01T07:02:38;3.03;;;2.63;;
3571;SDS011;7958;53.024;12.970;2023-08-01T07:05:05;3.30;;;2.80;;
3571;SDS011;7958;53.024;12.970;2023-08-01T07:07:32;3.40;;;2.60;;
3571;SDS011;7958;53.024;12.970;2023-08-01T07:09:59;3.17;;;2.87;;
3571;SDS011;7958;53.024;12.970;2023-08-01T07:12:25;3.07;;;2.80;;
3571;SDS011;7958;53.024;12.970;2023-08-01T07:14:51;2.53;;;2.33;;
3571;SDS011;7958;53.024;12.970;2023-08-01T07:17:19;2.70;;;2.50;;
3571;SDS011;7958;53.024;12.970;2023-08-01T07:19:47;2.90;;;2.70;;
3571;SDS011;7958;53.024;12.970;2023-08-01T07:22:14;5.83;;;3.07;;
3571;SDS011;7958;53.024;12.970;2023-08-01T07:24:40;3.73;;;3.10;;
3571;SDS011;7958;53.024;12.970;2023-08-01T07:27:07;5.57;;;2.80;;
3571;SDS011;7958;53.024;12.970;2023-08-01T07:29:33;4.10;;;3.50;;
3571;SDS011;7958;53.024;12.970;2023-08-01T07:32:00;5.33;;;3.50;;
3571;SDS011;7958;53.024;12.970;2023-08-01T07:34:28;3.27;;;2.97;;
3571;SDS011;7958;53.024;12.970;2023-08-01T07:36:55;5.30;;;2.80;;
3571;SDS011;7958;53.024;12.970;2023-08-01T07:39:21;3.73;;;3.30;;
3571;SDS011;7958;53.024;12.970;2023-08-01T07:41:48;5.30;;;3.73;;
3571;SDS011;7958;53.024;12.970;2023-08-01T07:44:15;3.67;;;2.93;;
3571;SDS011;7958;53.024;12.970;2023-08-01T07:46:42;3.43;;;3.13;;
3571;SDS011;7958;53.024;12.970;2023-08-01T07:49:09;3.73;;;3.03;;
3571;SDS011;7958;53.024;12.970;2023-08-01T07:51:37;3.37;;;3.07;;
3571;SDS011;7958;53.024;12.970;2023-08-01T07:54:04;3.17;;;2.87;;
3571;SDS011;7958;53.024;12.970;2023-08-01T07:56:31;3.83;;;2.60;;
3571;SDS011;7958;53.024;12.970;2023-08-01T07:58:57;4.10;;;2.90;;
3571;SDS011;7958;53.024;12.970;2023-08-01T08:01:24;2.47;;;2.27;;
3571;SDS011;7958;53.024;12.970;2023-08-01T08:03:51;4.23;;;3.83;;
3571;SDS011;7958;53.024;12.970;2023-08-01T08:06:18;2.37;;;2.17;;
3571;SDS011;7958;53.024;12.970;2023-08-01T08:08:47;3.30;;;2.20;;
3571;SDS011;7958;53.024;12.970;2023-08-01T08:11:13;3.07;;;2.20;;
3571;SDS011;7958;53.024;12.970;2023-08-01T08:13:41;4.33;;;2.33;;
3571;SDS011;7958;53.024;12.970;2023-08-01T08:16:07;2.67;;;2.20;;
3571;SDS011;7958;53.024;12.970;2023-08-01T08:18:34;2.53;;;2.07;;
3571;SDS011;7958;53.024;12.970;2023-08-01T08:21:04;2.40;;;2.20;;
3571;SDS011;7958;53.024;12.970;2023-08-01T08:23:30;5.03;;;2.17;;
3571;SDS011;7958;53.024;12.970;2023-08-01T08:25:58;2.63;;;2.40;;
3571;SDS011;7958;53.024;12.970;2023-08-01T08:28:27;2.97;;;2.70;;
3571;SDS011;7958;53.024;12.970;2023-08-01T08:30:55;2.33;;;2.13;;
3571;SDS011;7958;53.024;12.970;2023-08-01T08:33:22;5.03;;;2.50;;
3571;SDS011;7958;53.024;12.970;2023-08-01T08:35:48;4.30;;;2.57;;
3571;SDS011;7958;53.024;12.970;2023-08-01T08:38:16;2.33;;;2.20;;
3571;SDS011;7958;53.024;12.970;2023-08-01T08:40:46;3.53;;;2.60;;
3571;SDS011;7958;53.024;12.970;2023-08-01T08:43:20;8.43;;;2.63;;
3571;SDS011;7958;53.024;12.970;2023-08-01T08:45:49;3.00;;;2.70;;
3571;SDS011;7958;53.024;12.970;2023-08-01T08:48:17;3.43;;;2.80;;
3571;SDS011;7958;53.024;12.970;2023-08-01T08:50:45;3.03;;;2.47;;
3571;SDS011;7958;53.024;12.970;2023-08-01T08:53:11;2.23;;;2.03;;
3571;SDS011;7958;53.024;12.970;2023-08-01T08:55:38;5.90;;;2.53;;
3571;SDS011;7958;53.024;12.970;2023-08-01T08:58:05;2.63;;;2.43;;
3571;SDS011;7958;53.024;12.970;2023-08-01T09:00:33;3.47;;;2.60;;
3571;SDS011;7958;53.024;12.970;2023-08-01T09:03:02;3.30;;;2.10;;
3571;SDS011;7958;53.024;12.970;2023-08-01T09:05:30;3.90;;;2.50;;
3571;SDS011;7958;53.024;12.970;2023-08-01T09:07:59;2.80;;;2.00;;
3571;SDS011;7958;53.024;12.970;2023-08-01T09:10:30;2.33;;;2.13;;
3571;SDS011;7958;53.024;12.970;2023-08-01T09:13:02;2.87;;;2.00;;
3571;SDS011;7958;53.024;12.970;2023-08-01T09:15:28;3.77;;;2.20;;
3571;SDS011;7958;53.024;12.970;2023-08-01T09:17:56;2.67;;;2.10;;
3571;SDS011;7958;53.024;12.970;2023-08-01T09:20:26;3.27;;;2.10;;
3571;SDS011;7958;53.024;12.970;2023-08-01T09:22:53;3.77;;;1.90;;
3571;SDS011;7958;53.024;12.970;2023-08-01T09:25:19;4.00;;;1.50;;
3571;SDS011;7958;53.024;12.970;2023-08-01T09:28:01;2.50;;;2.30;;
3571;SDS011;7958;53.024;12.970;2023-08-01T09:30:28;3.27;;;2.00;;
3571;SDS011;7958;53.024;12.970;2023-08-01T09:32:58;4.70;;;1.77;;
3571;SDS011;7958;53.024;12.970;2023-08-01T09:35:27;2.17;;;1.90;;
3571;SDS011;7958;53.024;12.970;2023-08-01T09:37:53;2.90;;;2.00;;
3571;SDS011;7958;53.024;12.970;2023-08-01T09:40:21;2.17;;;2.07;;
3571;SDS011;7958;53.024;12.970;2023-08-01T09:42:47;1.90;;;1.80;;
3571;SDS011;7958;53.024;12.970;2023-08-01T09:45:14;1.63;;;1.53;;
3571;SDS011;7958;53.024;12.970;2023-08-01T09:47:41;2.03;;;1.77;;
3571;SDS011;7958;53.024;12.970;2023-08-01T09:50:10;1.50;;;1.40;;
3571;SDS011;7958;53.024;12.970;2023-08-01T09:52:39;1.90;;;1.80;;
3571;SDS011;7958;53.024;12.970;2023-08-01T09:55:06;2.07;;;1.90;;
3571;SDS011;7958;53.024;12.970;2023-08-01T09:57:37;2.10;;;2.00;;
3571;SDS011;7958;53.024;12.970;2023-08-01T10:00:08;1.60;;;1.33;;
3571;SDS011;7958;53.024;12.970;2023-08-01T10:02:35;2.17;;;2.03;;
3571;SDS011;7958;53.024;12.970;2023-08-01T10:05:03;3.00;;;2.00;;
3571;SDS011;7958;53.024;12.970;2023-08-01T10:07:32;2.30;;;2.10;;
3571;SDS011;7958;53.024;12.970;2023-08-01T10:09:59;2.43;;;2.00;;
3571;SDS011;7958;53.024;12.970;2023-08-01T10:12:34;1.80;;;1.70;;
3571;SDS011;7958;53.024;12.970;2023-08-01T10:15:01;2.30;;;2.10;;
3571;SDS011;7958;53.024;12.970;2023-08-01T10:17:32;1.90;;;1.80;;
3571;SDS011;7958;53.024;12.970;2023-08-01T10:20:00;1.97;;;1.87;;
3571;SDS011;7958;53.024;12.970;2023-08-01T10:22:28;1.80;;;1.70;;
3571;SDS011;7958;53.024;12.970;2023-08-01T10:25:06;4.00;;;1.90;;
3571;SDS011;7958;53.024;12.970;2023-08-01T10:27:33;2.80;;;2.60;;
3571;SDS011;7958;53.024;12.970;2023-08-01T10:30:02;5.03;;;3.33;;
3571;SDS011;7958;53.024;12.970;2023-08-01T10:32:30;2.90;;;2.70;;
3571;SDS011;7958;53.024;12.970;2023-08-01T10:35:00;3.70;;;2.70;;
3571;SDS011;7958;53.024;12.970;2023-08-01T10:37:26;4.53;;;2.83;;
3571;SDS011;7958;53.024;12.970;2023-08-01T10:39:56;2.73;;;2.53;;
3571;SDS011;7958;53.024;12.970;2023-08-01T10:42:25;3.30;;;3.00;;
3571;SDS011;7958;53.024;12.970;2023-08-01T10:44:52;3.70;;;3.00;;
3571;SDS011;7958;53.024;12.970;2023-08-01T10:47:24;3.30;;;3.00;;
3571;SDS011;7958;53.024;12.970;2023-08-01T10:49:51;3.07;;;2.80;;
3571;SDS011;7958;53.024;12.970;2023-08-01T10:52:20;4.73;;;3.00;;
3571;SDS011;7958;53.024;12.970;2023-08-01T10:54:55;4.00;;;3.60;;
3571;SDS011;7958;53.024;12.970;2023-08-01T10:57:22;4.33;;;3.37;;
3571;SDS011;7958;53.024;12.970;2023-08-01T10:59:51;3.90;;;3.43;;
3571;SDS011;7958;53.024;12.970;2023-08-01T11:02:21;7.03;;;4.10;;
3571;SDS011;7958;53.024;12.970;2023-08-01T11:04:58;4.43;;;4.03;;
3571;SDS011;7958;53.024;12.970;2023-08-01T11:07:28;4.90;;;4.03;;
3571;SDS011;7958;53.024;12.970;2023-08-01T11:10:06;4.40;;;3.47;;
3571;SDS011;7958;53.024;12.970;2023-08-01T11:12:36;4.63;;;3.27;;
3571;SDS011;7958;53.024;12.970;2023-08-01T11:15:06;4.30;;;3.90;;
3571;SDS011;7958;53.024;12.970;2023-08-01T11:17:36;4.10;;;3.50;;
3571;SDS011;7958;53.024;12.970;2023-08-01T11:22:56;6.27;;;4.20;;
3571;SDS011;7958;53.024;12.970;2023-08-01T11:25:32;3.60;;;3.40;;
3571;SDS011;7958;53.024;12.970;2023-08-01T11:28:02;4.17;;;3.87;;
3571;SDS011;7958;53.024;12.970;2023-08-01T11:30:30;6.03;;;3.90;;
3571;SDS011;7958;53.024;12.970;2023-08-01T11:32:59;4.20;;;3.90;;
3571;SDS011;7958;53.024;12.970;2023-08-01T11:35:27;5.53;;;4.00;;
3571;SDS011;7958;53.024;12.970;2023-08-01T11:37:54;5.37;;;4.03;;
3571;SDS011;7958;53.024;12.970;2023-08-01T11:40:21;4.60;;;4.17;;
3571;SDS011;7958;53.024;12.970;2023-08-01T11:42:48;4.80;;;3.90;;
3571;SDS011;7958;53.024;12.970;2023-08-01T11:45:23;11.90;;;4.23;;
3571;SDS011;7958;53.024;12.970;2023-08-01T11:47:50;4.83;;;4.40;;
3571;SDS011;7958;53.024;12.970;2023-08-01T11:50:20;5.00;;;3.63;;
3571;SDS011;7958;53.024;12.970;2023-08-01T11:52:47;4.90;;;4.33;;
3571;SDS011;7958;53.024;12.970;2023-08-01T11:55:18;4.70;;;3.80;;
3571;SDS011;7958;53.024;12.970;2023-08-01T11:57:51;4.13;;;3.83;;
3571;SDS011;7958;53.024;12.970;2023-08-01T12:00:20;4.97;;;4.00;;
3571;SDS011;7958;53.024;12.970;2023-08-01T12:02:48;4.47;;;4.07;;
3571;SDS011;7958;53.024;12.970;2023-08-01T12:05:20;5.53;;;3.60;;
3571;SDS011;7958;53.024;12.970;2023-08-01T12:07:47;3.63;;;3.30;;
3571;SDS011;7958;53.024;12.970;2023-08-01T12:10:14;4.40;;;3.93;;
3571;SDS011;7958;53.024;12.970;2023-08-01T12:12:44;8.03;;;3.77;;
3571;SDS011;7958;53.024;12.970;2023-08-01T12:15:14;4.00;;;3.70;;
3571;SDS011;7958;53.024;12.970;2023-08-01T12:17:41;5.67;;;3.40;;
3571;SDS011;7958;53.024;12.970;2023-08-01T12:20:10;7.63;;;3.40;;
3571;SDS011;7958;53.024;12.970;2023-08-01T12:22:37;5.50;;;3.23;;
3571;SDS011;7958;53.024;12.970;2023-08-01T12:25:03;3.77;;;3.50;;
3571;SDS011;7958;53.024;12.970;2023-08-01T12:27:32;5.77;;;3.97;;
3571;SDS011;7958;53.024;12.970;2023-08-01T12:30:04;2.97;;;2.77;;
3571;SDS011;7958;53.024;12.970;2023-08-01T12:32:32;8.13;;;3.70;;
3571;SDS011;7958;53.024;12.970;2023-08-01T12:35:00;4.17;;;3.07;;
3571;SDS011;7958;53.024;12.970;2023-08-01T12:37:27;3.40;;;3.10;;
3571;SDS011;7958;53.024;12.970;2023-08-01T12:39:56;3.37;;;3.17;;
3571;SDS011;7958;53.024;12.970;2023-08-01T12:42:22;5.97;;;3.00;;
3571;SDS011;7958;53.024;12.970;2023-08-01T12:44:51;2.93;;;2.73;;
3571;SDS011;7958;53.024;12.970;2023-08-01T12:47:18;4.40;;;3.00;;
3571;SDS011;7958;53.024;12.970;2023-08-01T12:49:44;2.53;;;2.33;;
3571;SDS011;7958;53.024;12.970;2023-08-01T12:52:28;4.03;;;2.10;;
3571;SDS011;7958;53.024;12.970;2023-08-01T12:54:57;2.70;;;2.33;;
3571;SDS011;7958;53.024;12.970;2023-08-01T12:57:23;2.50;;;2.30;;
3571;SDS011;7958;53.024;12.970;2023-08-01T12:59:51;2.50;;;2.30;;
3571;SDS011;7958;53.024;12.970;2023-08-01T13:02:18;4.20;;;2.63;;
3571;SDS011;7958;53.024;12.970;2023-08-01T13:04:47;3.70;;;2.50;;
3571;SDS011;7958;53.024;12.970;2023-08-01T13:07:13;2.60;;;2.40;;
3571;SDS011;7958;53.024;12.970;2023-08-01T13:09:42;2.60;;;2.40;;
3571;SDS011;7958;53.024;12.970;2023-08-01T13:12:08;4.67;;;2.70;;
3571;SDS011;7958;53.024;12.970;2023-08-01T13:14:35;3.03;;;2.60;;
3571;SDS011;7958;53.024;12.970;2023-08-01T13:17:02;4.10;;;2.60;;
3571;SDS011;7958;53.024;12.970;2023-08-01T13:19:28;6.63;;;2.90;;
3571;SDS011;7958;53.024;12.970;2023-08-01T13:21:54;3.07;;;2.77;;
3571;SDS011;7958;53.024;12.970;2023-08-01T13:24:22;3.67;;;2.73;;
3571;SDS011;7958;53.024;12.970;2023-08-01T13:26:50;3.87;;;2.63;;
3571;SDS011;7958;53.024;12.970;2023-08-01T13:29:16;3.83;;;2.90;;
3571;SDS011;7958;53.024;12.970;2023-08-01T13:31:42;5.37;;;2.80;;
3571;SDS011;7958;53.024;12.970;2023-08-01T13:34:09;2.77;;;2.57;;
3571;SDS011;7958;53.024;12.970;2023-08-01T13:36:40;5.93;;;2.90;;
3571;SDS011;7958;53.024;12.970;2023-08-01T13:39:07;4.20;;;3.60;;
3571;SDS011;7958;53.024;12.970;2023-08-01T13:41:40;5.57;;;2.60;;
3571;SDS011;7958;53.024;12.970;2023-08-01T13:44:08;3.70;;;3.37;;
3571;SDS011;7958;53.024;12.970;2023-08-01T13:46:34;8.93;;;3.17;;
3571;SDS011;7958;53.024;12.970;2023-08-01T13:49:01;6.33;;;3.53;;
3571;SDS011;7958;53.024;12.970;2023-08-01T13:51:30;5.50;;;3.17;;
3571;SDS011;7958;53.024;12.970;2023-08-01T13:53:57;3.63;;;3.33;;
3571;SDS011;7958;53.024;12.970;2023-08-01T13:56:25;4.20;;;2.50;;
3571;SDS011;7958;53.024;12.970;2023-08-01T13:58:51;2.97;;;2.70;;
3571;SDS011;7958;53.024;12.970;2023-08-01T14:01:25;6.00;;;2.33;;
3571;SDS011;7958;53.024;12.970;2023-08-01T14:03:52;2.50;;;1.90;;
3571;SDS011;7958;53.024;12.970;2023-08-01T14:06:20;2.47;;;1.90;;
3571;SDS011;7958;53.024;12.970;2023-08-01T14:08:47;4.00;;;1.73;;
3571;SDS011;7958;53.024;12.970;2023-08-01T14:11:13;3.10;;;1.80;;
3571;SDS011;7958;53.024;12.970;2023-08-01T14:13:42;2.17;;;1.70;;
3571;SDS011;7958;53.024;12.970;2023-08-01T14:16:10;4.63;;;2.27;;
3571;SDS011;7958;53.024;12.970;2023-08-01T14:18:38;4.13;;;1.77;;
3571;SDS011;7958;53.024;12.970;2023-08-01T14:21:05;2.43;;;1.97;;
3571;SDS011;7958;53.024;12.970;2023-08-01T14:23:31;2.00;;;1.80;;
3571;SDS011;7958;53.024;12.970;2023-08-01T14:26:02;5.87;;;1.47;;
3571;SDS011;7958;53.024;12.970;2023-08-01T14:28:29;3.80;;;2.33;;
3571;SDS011;7958;53.024;12.970;2023-08-01T14:30:55;2.13;;;1.90;;
3571;SDS011;7958;53.024;12.970;2023-08-01T14:33:22;4.90;;;1.80;;
3571;SDS011;7958;53.024;12.970;2023-08-01T14:35:49;3.60;;;2.17;;
3571;SDS011;7958;53.024;12.970;2023-08-01T14:38:19;3.53;;;1.90;;
3571;SDS011;7958;53.024;12.970;2023-08-01T14:40:46;1.90;;;1.77;;
3571;SDS011;7958;53.024;12.970;2023-08-01T14:43:15;3.67;;;2.83;;
3571;SDS011;7958;53.024;12.970;2023-08-01T14:45:42;2.20;;;1.93;;
3571;SDS011;7958;53.024;12.970;2023-08-01T14:48:10;2.40;;;1.80;;
3571;SDS011;7958;53.024;12.970;2023-08-01T14:50:37;6.63;;;2.07;;
3571;SDS011;7958;53.024;12.970;2023-08-01T14:53:05;6.00;;;3.20;;
3571;SDS011;7958;53.024;12.970;2023-08-01T14:55:33;8.10;;;3.10;;
3571;SDS011;7958;53.024;12.970;2023-08-01T14:57:59;4.97;;;2.77;;
3571;SDS011;7958;53.024;12.970;2023-08-01T15:00:35;5.80;;;2.90;;
3571;SDS011;7958;53.024;12.970;2023-08-01T15:03:02;5.10;;;2.27;;
3571;SDS011;7958;53.024;12.970;2023-08-01T15:05:29;2.80;;;2.07;;
3571;SDS011;7958;53.024;12.970;2023-08-01T15:07:55;7.37;;;1.97;;